This is the latest recevied weather packets stored in our database for station/object N9CQS-13. If no packets are shown the sender has not sent any weather packets the latest 10 day(s).
| Time | Temp. | Humidity | Pressure | Rain* | Wind** | Luminosity | Snow |
|---|---|---|---|---|---|---|---|
| 1777509692 | 12.78° C | 48% | 1015.8 hPa | 0 mm | - | - | - |
| 1777509092 | 12.78° C | 47% | 1015.4 hPa | 0 mm | - | - | - |
| 1777508492 | 13.33° C | 46% | 1015.4 hPa | 0 mm | - | - | - |
| 1777507892 | 13.89° C | 43% | 1015.3 hPa | 0 mm | - | - | - |
| 1777507292 | 13.89° C | 43% | 1015.3 hPa | 0 mm | - | - | - |
| 1777506692 | 13.89° C | 45% | 1015.3 hPa | 0 mm | - | - | - |
| 1777506092 | 14.44° C | 45% | 1015.4 hPa | 0 mm | - | - | - |
| 1777505492 | 14.44° C | 46% | 1015.4 hPa | 0 mm | - | - | - |
| 1777504892 | 14.44° C | 50% | 1015.4 hPa | 0 mm | - | - | - |
| 1777504293 | 14.44° C | 49% | 1015.5 hPa | 0 mm | - | - | - |
| 1777503692 | 15° C | 46% | 1015.4 hPa | 0 mm | - | - | - |
| 1777503092 | 15° C | 46% | 1015 hPa | 0 mm | - | - | - |
| 1777502492 | 14.44° C | 47% | 1015.1 hPa | 0 mm | - | - | - |
| 1777501892 | 15° C | 47% | 1015 hPa | 0 mm | - | - | - |
| 1777501292 | 15° C | 47% | 1015.1 hPa | 0 mm | - | - | - |
| 1777500692 | 15.56° C | 45% | 1015.1 hPa | 0 mm | - | - | - |
| 1777500092 | 15.56° C | 45% | 1015 hPa | 0 mm | - | - | - |
| 1777499492 | 16.11° C | 50% | 1014.8 hPa | 0 mm | - | - | - |
| 1777498892 | 15.56° C | 52% | 1014.8 hPa | 0 mm | - | - | - |
| 1777498292 | 16.67° C | 46% | 1014.7 hPa | 0 mm | - | - | - |
| 1777497693 | 16.11° C | 51% | 1014.8 hPa | 0 mm | - | - | - |
| 1777497092 | 17.22° C | 48% | 1014.8 hPa | 0 mm | - | - | - |
| 1777496492 | 15.56° C | 53% | 1015 hPa | 0 mm | - | - | - |
| 1777495892 | 16.11° C | 50% | 1014.9 hPa | 0 mm | - | - | - |
| 1777495292 | 16.11° C | 51% | 1014.8 hPa | 0 mm | - | - | - |
* Rain latest hour (hover to see other rain measurements)
** Current wind speed in m/s (hover to see current wind gust speed)